Time;durP1;ratioP1;P1;durP2;ratioP2;P2;SDS_P1;SDS_P2;PMS_P1;PMS_P2;Temp;Humidity;BMP_temperature;BMP_pressure;BME280_temperature;BME280_humidity;BME280_pressure;Samples;Min_cycle;Max_cycle;Signal;HPM_P1;HPM_P2
2022/07/15 00:02:16;;;;;;;1.42;1.00;;;;;;;18.95;67.65;94556.00;5051818;28;20659;-61
2022/07/15 00:04:42;;;;;;;2.35;0.98;;;;;;;19.06;67.33;94555.53;5052683;28;20185;-61
2022/07/15 00:07:07;;;;;;;0.85;0.85;;;;;;;19.18;67.52;94561.81;5052554;28;20240;-60
2022/07/15 00:12:18;;;;;;;3.88;0.98;;;;;;;19.38;65.74;94580.06;5052601;28;20291;-60
2022/07/15 00:14:44;;;;;;;2.78;1.20;;;;;;;19.47;64.78;94592.66;5052492;28;20181;-60
2022/07/15 00:17:10;;;;;;;2.05;1.05;;;;;;;19.22;65.03;94597.34;5052334;28;20306;-60
2022/07/15 00:19:36;;;;;;;2.55;1.17;;;;;;;19.16;65.88;94574.88;5052479;28;20266;-60
2022/07/15 00:22:01;;;;;;;1.20;1.00;;;;;;;19.21;65.59;94580.25;5052586;28;20228;-61
2022/07/15 00:24:27;;;;;;;3.80;1.20;;;;;;;19.34;65.95;94579.63;5018093;28;20186;-61
2022/07/15 00:26:53;;;;;;;1.63;1.15;;;;;;;19.44;65.74;94587.84;5034406;28;20212;-60
2022/07/15 00:29:19;;;;;;;1.13;1.02;;;;;;;19.26;65.44;94597.75;5034511;28;20189;-61
2022/07/15 00:31:44;;;;;;;2.08;1.10;;;;;;;19.11;66.35;94587.50;5052228;28;20254;-61
2022/07/15 00:34:09;;;;;;;1.23;0.93;;;;;;;19.19;66.59;94579.66;5052243;28;20267;-61
2022/07/15 00:36:35;;;;;;;2.05;0.80;;;;;;;19.11;66.64;94586.69;5051446;28;20629;-61
2022/07/15 00:39:01;;;;;;;1.70;0.93;;;;;;;19.18;66.63;94583.22;5034131;28;20609;-61
2022/07/15 00:41:27;;;;;;;2.15;1.08;;;;;;;19.25;66.36;94591.00;5051771;28;20216;-61
2022/07/15 00:43:52;;;;;;;1.40;1.30;;;;;;;19.20;66.26;94588.19;5052270;28;20273;-60
2022/07/15 00:46:20;;;;;;;5.95;1.35;;;;;;;19.09;66.99;94579.16;5052306;28;20206;-61
2022/07/15 00:48:47;;;;;;;3.00;1.20;;;;;;;19.01;68.37;94550.13;5052050;28;20254;-61
2022/07/15 00:51:12;;;;;;;6.03;1.40;;;;;;;18.97;68.72;94546.31;5051952;28;20212;-61
2022/07/15 00:53:40;;;;;;;5.18;1.10;;;;;;;19.06;68.78;94545.22;5052080;28;20238;-61
2022/07/15 00:56:09;;;;;;;2.00;1.42;;;;;;;19.14;68.46;94552.84;5051515;28;20220;-60
2022/07/15 00:58:41;;;;;;;1.10;1.00;;;;;;;19.18;67.80;94561.81;5051811;28;20185;-61
2022/07/15 01:01:10;;;;;;;2.55;1.25;;;;;;;19.26;66.96;94562.47;5051671;28;20205;-61
2022/07/15 01:03:36;;;;;;;2.53;1.20;;;;;;;19.34;67.42;94558.19;5051743;28;20190;-61
2022/07/15 01:06:02;;;;;;;2.38;1.17;;;;;;;19.41;67.37;94557.28;5051760;28;20201;-61
2022/07/15 01:08:28;;;;;;;1.48;1.30;;;;;;;19.55;68.11;94548.69;5051436;28;20181;-61
2022/07/15 01:10:54;;;;;;;2.70;1.48;;;;;;;19.41;69.13;94541.81;5033632;28;20772;-61
2022/07/15 01:13:21;;;;;;;2.95;1.42;;;;;;;19.13;67.27;94558.97;5051527;28;20237;-60
2022/07/15 01:15:48;;;;;;;1.55;1.17;;;;;;;18.85;68.43;94550.34;5051569;28;20236;-60
2022/07/15 01:18:14;;;;;;;1.77;1.60;;;;;;;18.83;67.84;94554.91;5051516;28;20661;-61
2022/07/15 01:20:41;;;;;;;3.17;1.10;;;;;;;18.61;68.90;94543.78;5051452;28;20205;-61
2022/07/15 01:23:06;;;;;;;3.17;1.30;;;;;;;18.74;68.20;94554.22;5051312;28;20184;-61
2022/07/15 01:25:32;;;;;;;1.83;1.23;;;;;;;18.63;69.31;94535.84;5051264;28;20323;-61
2022/07/15 01:27:58;;;;;;;4.30;1.50;;;;;;;18.59;69.32;94537.19;5033325;28;20217;-62
2022/07/15 01:30:25;;;;;;;2.17;1.10;;;;;;;18.62;68.13;94550.53;5051381;28;20217;-60
2022/07/15 01:32:51;;;;;;;8.65;1.20;;;;;;;18.47;69.05;94534.31;5051146;28;20209;-61
2022/07/15 01:35:17;;;;;;;1.35;1.25;;;;;;;18.40;68.20;94538.56;5033081;28;20599;-59
2022/07/15 01:37:44;;;;;;;2.03;1.30;;;;;;;18.28;68.73;94535.63;5051063;28;20238;-61
2022/07/15 01:40:10;;;;;;;1.52;1.23;;;;;;;18.24;68.62;94531.81;5032883;28;20280;-61
2022/07/15 01:42:36;;;;;;;1.38;1.10;;;;;;;18.25;69.41;94522.31;5049739;28;20199;-60
2022/07/15 01:45:03;;;;;;;1.95;1.10;;;;;;;18.29;67.92;94542.38;5050880;28;20224;-60
2022/07/15 01:47:28;;;;;;;1.48;1.20;;;;;;;18.21;68.22;94539.09;5050746;28;20193;-60
2022/07/15 01:49:54;;;;;;;2.20;1.27;;;;;;;18.10;68.67;94535.19;5050796;28;20181;-61
2022/07/15 01:52:19;;;;;;;1.27;1.10;;;;;;;17.96;69.20;94533.41;5050781;28;20239;-59
2022/07/15 01:54:45;;;;;;;2.53;1.17;;;;;;;17.87;69.87;94520.84;5050853;28;20208;-60
2022/07/15 01:57:11;;;;;;;1.35;1.10;;;;;;;17.75;70.45;94524.81;5050649;28;20201;-59
2022/07/15 01:59:37;;;;;;;2.08;1.05;;;;;;;17.63;70.50;94520.09;5050896;28;20181;-60
2022/07/15 02:02:03;;;;;;;3.15;1.30;;;;;;;17.52;71.44;94512.03;5050934;28;20212;-60
2022/07/15 02:04:28;;;;;;;2.60;1.15;;;;;;;17.45;71.66;94518.81;5050758;28;20653;-59
2022/07/15 02:06:54;;;;;;;2.63;0.95;;;;;;;17.40;72.02;94510.81;5050986;28;20259;-60
2022/07/15 02:09:19;;;;;;;3.20;1.30;;;;;;;17.26;72.56;94514.16;5032766;28;20273;-60
2022/07/15 02:11:45;;;;;;;1.08;1.08;;;;;;;17.24;73.20;94521.25;5050404;28;20229;-60
2022/07/15 02:14:11;;;;;;;2.03;1.02;;;;;;;17.30;73.31;94515.41;5050934;28;20652;-62
2022/07/15 02:16:37;;;;;;;1.10;1.00;;;;;;;17.20;74.02;94517.41;5050790;28;20217;-61
2022/07/15 02:19:02;;;;;;;1.35;1.13;;;;;;;17.32;73.41;94527.13;5050730;28;20189;-60
2022/07/15 02:21:28;;;;;;;2.17;0.90;;;;;;;17.39;72.31;94551.13;5057438;22;20228;-59
2022/07/15 02:23:57;;;;;;;1.23;1.10;;;;;;;17.35;72.44;94542.16;5032783;28;20189;-60
2022/07/15 02:26:23;;;;;;;5.80;1.30;;;;;;;17.16;73.44;94527.25;5050252;28;20213;-60
2022/07/15 02:28:48;;;;;;;1.30;1.20;;;;;;;17.22;73.63;94528.31;5050308;28;20209;-61
2022/07/15 02:31:14;;;;;;;4.35;1.25;;;;;;;17.18;74.11;94533.00;5050336;28;20232;-61
2022/07/15 02:33:41;;;;;;;3.67;1.23;;;;;;;17.08;74.62;94527.31;5050242;28;20571;-61
2022/07/15 02:36:07;;;;;;;2.03;1.02;;;;;;;17.04;75.20;94528.63;5050202;28;20743;-60
2022/07/15 02:38:33;;;;;;;2.92;1.20;;;;;;;17.11;74.97;94531.31;5050393;28;20336;-60
2022/07/15 02:40:58;;;;;;;1.05;0.90;;;;;;;17.10;75.51;94529.69;5050443;28;20212;-61
2022/07/15 02:43:24;;;;;;;1.77;1.20;;;;;;;17.06;75.90;94526.69;5050228;28;20250;-59
2022/07/15 02:45:49;;;;;;;2.30;1.05;;;;;;;17.09;76.02;94522.97;5050270;28;20296;-61
2022/07/15 02:48:15;;;;;;;1.45;1.08;;;;;;;17.11;75.98;94531.31;5050363;28;20182;-60
2022/07/15 02:50:41;;;;;;;3.85;1.30;;;;;;;16.92;76.95;94524.84;5032202;28;20229;-59
2022/07/15 02:53:07;;;;;;;1.45;1.20;;;;;;;17.00;76.78;94531.69;5032205;28;20206;-60
2022/07/15 02:55:33;;;;;;;2.63;1.40;;;;;;;17.01;77.42;94530.75;5050448;28;20209;-60
2022/07/15 02:57:59;;;;;;;1.67;1.20;;;;;;;16.93;77.83;94521.31;5050296;28;20548;-60
2022/07/15 03:00:25;;;;;;;1.73;1.33;;;;;;;17.07;77.52;94527.50;5053233;28;20217;-60
2022/07/15 03:02:52;;;;;;;1.40;1.30;;;;;;;17.05;77.72;94529.44;5053912;28;20193;-61
2022/07/15 03:05:18;;;;;;;2.35;1.13;;;;;;;17.09;79.06;94518.63;5053801;28;20689;-61
2022/07/15 03:07:44;;;;;;;3.78;1.70;;;;;;;17.17;77.27;94539.09;5053851;28;20351;-61
2022/07/15 03:10:11;;;;;;;2.25;1.60;;;;;;;16.96;78.05;94527.88;5035811;28;20232;-61
2022/07/15 03:12:36;;;;;;;3.33;1.38;;;;;;;16.94;78.31;94527.25;5053877;28;20296;-60
2022/07/15 03:15:03;;;;;;;6.30;1.67;;;;;;;16.88;78.75;94527.94;5053992;28;20591;-60
2022/07/15 03:17:29;;;;;;;6.65;1.65;;;;;;;16.69;79.58;94519.72;5053606;28;20190;-60
2022/07/15 03:19:57;;;;;;;1.63;1.33;;;;;;;16.68;80.37;94523.22;5053533;28;20771;-60
2022/07/15 03:22:25;;;;;;;2.17;1.30;;;;;;;16.66;80.48;94524.41;5053543;28;20231;-60
2022/07/15 03:24:51;;;;;;;1.58;1.35;;;;;;;16.66;80.78;94524.41;5053404;28;20731;-60
2022/07/15 03:27:17;;;;;;;3.30;1.30;;;;;;;16.69;81.07;94526.59;5053520;28;20199;-60
2022/07/15 03:29:43;;;;;;;3.38;1.50;;;;;;;16.66;81.10;94527.72;5053460;28;20189;-61
2022/07/15 03:32:15;;;;;;;2.40;1.70;;;;;;;16.76;82.38;94518.06;5053350;28;20216;-60
2022/07/15 03:34:42;;;;;;;2.00;1.67;;;;;;;17.01;97.19;94523.03;5035255;28;20281;-60
2022/07/15 03:37:08;;;;;;;3.40;1.20;;;;;;;17.14;91.04;94531.75;5053363;28;20275;-60
2022/07/15 03:39:33;;;;;;;4.43;2.40;;;;;;;17.40;86.62;94569.94;5035641;28;20671;-60
2022/07/15 03:41:59;;;;;;;3.67;1.40;;;;;;;17.56;86.92;94565.50;5053313;28;20702;-60
2022/07/15 03:44:24;;;;;;;2.33;1.33;;;;;;;17.57;82.22;94589.44;5053167;28;20194;-60
2022/07/15 03:46:50;;;;;;;2.92;1.42;;;;;;;17.65;82.47;94575.69;5053093;28;20278;-61
2022/07/15 03:49:16;;;;;;;3.80;2.17;;;;;;;17.67;80.37;94610.56;5053413;28;20194;-60
2022/07/15 03:51:43;;;;;;;3.50;1.80;;;;;;;17.78;82.67;94593.88;5052962;28;20213;-60
2022/07/15 03:54:09;;;;;;;2.78;1.60;;;;;;;18.03;80.54;94616.66;5035078;28;20256;-60
2022/07/15 03:56:35;;;;;;;1.58;1.25;;;;;;;18.13;79.24;94626.69;5053143;28;20698;-60
2022/07/15 03:59:01;;;;;;;2.65;1.60;;;;;;;18.56;87.78;94564.13;5052723;28;20668;-61
2022/07/15 04:01:27;;;;;;;1.67;1.58;;;;;;;18.68;81.39;94592.78;5034908;28;20224;-61
2022/07/15 04:03:53;;;;;;;3.65;1.70;;;;;;;18.82;87.07;94523.22;5052720;28;20675;-60
2022/07/15 04:06:20;;;;;;;3.70;1.70;;;;;;;18.74;74.64;94677.06;5052650;28;20215;-61
2022/07/15 04:08:46;;;;;;;6.00;1.95;;;;;;;18.48;73.07;94692.16;5052668;28;20243;-61
2022/07/15 04:11:13;;;;;;;3.35;1.52;;;;;;;18.23;74.54;94647.81;5052463;28;20209;-61
2022/07/15 04:13:39;;;;;;;6.75;3.40;;;;;;;18.26;75.65;94657.75;5052595;28;20205;-62
2022/07/15 04:16:06;;;;;;;3.03;1.50;;;;;;;18.22;81.04;94562.06;5052512;28;20235;-61
2022/07/15 04:18:32;;;;;;;3.40;1.60;;;;;;;18.57;76.45;94684.16;5052618;28;20656;-61
2022/07/15 04:20:58;;;;;;;3.08;1.75;;;;;;;18.70;76.64;94650.88;5052325;28;20286;-61
2022/07/15 04:23:24;;;;;;;1.67;1.48;;;;;;;18.74;72.48;94718.25;5052404;28;20217;-60
2022/07/15 04:25:53;;;;;;;3.50;1.48;;;;;;;18.73;78.44;94598.16;5052742;28;20209;-61
2022/07/15 04:28:23;;;;;;;3.90;1.55;;;;;;;18.84;73.76;94682.72;5052541;28;20213;-60
2022/07/15 04:30:49;;;;;;;2.33;1.63;;;;;;;18.88;71.88;94709.75;5052344;28;20287;-60
2022/07/15 04:33:15;;;;;;;1.80;1.67;;;;;;;18.85;72.46;94695.44;5034285;28;20654;-61
2022/07/15 04:35:42;;;;;;;2.72;1.52;;;;;;;18.81;71.76;94711.41;5034221;28;20220;-61
2022/07/15 04:38:08;;;;;;;3.97;1.30;;;;;;;18.71;72.54;94688.50;5052430;28;20251;-60
2022/07/15 04:40:34;;;;;;;3.40;1.45;;;;;;;18.72;73.99;94663.56;5034253;28;20263;-60
2022/07/15 04:42:59;;;;;;;5.35;1.50;;;;;;;18.79;79.20;94587.94;5052369;28;20190;-62
2022/07/15 04:45:26;;;;;;;4.43;2.25;;;;;;;18.86;83.80;94565.66;5052010;28;20641;-61
2022/07/15 04:47:52;;;;;;;218.95;198.82;;;;;;;19.22;82.10;94578.50;5051909;28;20193;-61
2022/07/15 04:53:01;;;;;;;4.30;2.10;;;;;;;19.58;70.06;94754.63;5052081;28;20663;-62
2022/07/15 04:55:27;;;;;;;12.10;10.90;;;;;;;19.88;81.29;94575.50;5051947;28;20632;-61
2022/07/15 04:57:53;;;;;;;16.52;2.20;;;;;;;19.92;69.92;94766.88;5051789;28;20281;-61
2022/07/15 05:00:19;;;;;;;6.68;2.08;;;;;;;19.65;68.22;94760.66;5051904;28;20288;-61
2022/07/15 05:02:44;;;;;;;4.70;2.05;;;;;;;19.84;77.41;94597.50;5051660;28;20532;-62
2022/07/15 05:05:10;;;;;;;2.40;2.00;;;;;;;20.20;78.51;94602.53;5051563;28;20660;-61
2022/07/15 05:07:36;;;;;;;6.15;2.17;;;;;;;20.44;74.61;94665.88;5051639;28;20196;-61
2022/07/15 05:10:04;;;;;;;4.63;2.30;;;;;;;20.67;70.21;94756.81;5051403;28;20265;-62
2022/07/15 05:12:30;;;;;;;2.80;1.85;;;;;;;20.67;70.90;94731.78;5051432;28;20205;-61
2022/07/15 05:14:55;;;;;;;4.45;2.50;;;;;;;20.68;67.67;94785.06;5051785;28;20664;-61
2022/07/15 05:17:21;;;;;;;3.97;2.22;;;;;;;20.64;72.64;94675.34;5051307;28;20190;-61
2022/07/15 05:19:47;;;;;;;5.75;2.00;;;;;;;20.58;71.03;94690.78;5051758;28;20277;-62
2022/07/15 05:22:12;;;;;;;3.00;1.63;;;;;;;20.53;69.07;94742.19;5050916;28;20264;-60
2022/07/15 05:24:38;;;;;;;2.13;1.60;;;;;;;20.57;75.04;94616.84;5033298;28;20197;-60
2022/07/15 05:27:03;;;;;;;1.63;1.52;;;;;;;20.68;68.16;94785.06;5051037;28;20233;-60
2022/07/15 05:29:29;;;;;;;8.73;4.93;;;;;;;20.59;75.17;94589.84;5016932;28;20198;-61
2022/07/15 05:31:54;;;;;;;3.25;1.63;;;;;;;20.42;67.60;94777.09;5051212;28;20568;-60
2022/07/15 05:34:20;;;;;;;3.58;1.90;;;;;;;20.63;74.94;94623.81;5051348;28;20326;-60
2022/07/15 05:36:45;;;;;;;4.20;1.67;;;;;;;20.76;73.37;94647.16;5051195;28;20221;-60
2022/07/15 05:39:11;;;;;;;3.88;1.80;;;;;;;20.90;71.51;94695.34;5050821;28;20300;-61
2022/07/15 05:41:36;;;;;;;2.38;1.60;;;;;;;20.92;72.12;94676.06;5033098;28;20680;-61
2022/07/15 05:44:02;;;;;;;3.05;1.85;;;;;;;20.87;69.15;94729.31;5050445;28;20189;-61
2022/07/15 05:46:28;;;;;;;4.07;1.83;;;;;;;20.77;69.89;94706.41;5050981;28;20201;-60
2022/07/15 05:48:53;;;;;;;3.60;1.80;;;;;;;20.80;73.26;94648.38;5050830;28;20216;-60
2022/07/15 05:51:19;;;;;;;1.85;1.38;;;;;;;21.03;67.53;94772.97;5050864;28;20193;-61
2022/07/15 05:53:44;;;;;;;2.45;1.65;;;;;;;20.84;68.71;94727.13;5050562;28;20711;-61
2022/07/15 05:56:11;;;;;;;4.30;1.83;;;;;;;20.97;69.22;94729.75;5058083;22;20313;-59
2022/07/15 05:58:36;;;;;;;2.55;1.60;;;;;;;21.17;70.93;94686.72;5050557;28;20222;-61
2022/07/15 06:01:03;;;;;;;4.63;2.55;;;;;;;21.44;76.18;94615.97;5050635;28;20201;-60
2022/07/15 06:03:28;;;;;;;1.70;1.60;;;;;;;21.41;66.05;94807.78;5050676;28;20182;-60
2022/07/15 06:05:54;;;;;;;4.35;1.88;;;;;;;21.23;75.42;94585.09;5050524;28;20240;-60
2022/07/15 06:08:19;;;;;;;3.20;2.15;;;;;;;21.28;73.83;94628.47;5050751;28;20178;-61
2022/07/15 06:10:46;;;;;;;3.95;2.10;;;;;;;21.39;69.58;94726.22;5050637;28;20224;-60
2022/07/15 06:13:12;;;;;;;3.92;1.75;;;;;;;21.65;69.37;94742.59;5050612;28;20209;-61
2022/07/15 06:15:38;;;;;;;2.78;1.70;;;;;;;21.99;72.51;94665.81;5050854;28;20240;-61
2022/07/15 06:18:03;;;;;;;3.03;2.00;;;;;;;22.20;69.39;94740.75;5032912;28;20648;-61
2022/07/15 06:20:29;;;;;;;3.83;1.70;;;;;;;22.42;70.80;94698.09;5050576;28;20271;-62
2022/07/15 06:22:55;;;;;;;4.45;2.10;;;;;;;22.70;67.25;94773.06;5033068;28;20242;-64
2022/07/15 06:25:21;;;;;;;3.22;1.60;;;;;;;22.81;66.48;94770.63;5050876;28;20217;-63
2022/07/15 06:27:46;;;;;;;7.20;1.73;;;;;;;23.05;65.11;94803.72;5050581;28;20649;-62
2022/07/15 06:30:13;;;;;;;2.00;1.60;;;;;;;23.19;63.91;94820.84;5050987;28;20253;-61
2022/07/15 06:32:38;;;;;;;3.00;1.92;;;;;;;23.25;62.63;94840.78;5050473;28;20272;-62
2022/07/15 06:35:04;;;;;;;4.57;1.80;;;;;;;23.28;63.66;94819.66;5054841;28;20595;-61
2022/07/15 06:37:30;;;;;;;2.63;1.90;;;;;;;23.44;62.24;94846.16;5054503;28;20192;-61
2022/07/15 06:40:02;;;;;;;4.35;1.73;;;;;;;23.49;60.07;94895.69;5054523;28;20279;-60
2022/07/15 06:42:28;;;;;;;4.97;2.40;;;;;;;23.52;62.00;94835.56;5054399;28;20197;-62
2022/07/15 06:44:54;;;;;;;3.00;1.83;;;;;;;23.58;61.65;94832.97;5054441;28;20284;-61
2022/07/15 06:47:19;;;;;;;5.05;1.80;;;;;;;23.75;61.73;94838.50;5054110;28;20267;-61
2022/07/15 06:49:44;;;;;;;5.00;1.90;;;;;;;23.88;61.70;94826.25;5054431;28;20191;-61
2022/07/15 06:52:10;;;;;;;5.25;2.22;;;;;;;23.93;59.74;94870.59;5053927;28;20224;-61
2022/07/15 06:54:36;;;;;;;7.90;2.50;;;;;;;24.02;59.52;94874.53;5054106;28;20753;-61
2022/07/15 06:57:02;;;;;;;4.88;2.42;;;;;;;23.96;60.05;94845.97;5054065;28;20209;-61
2022/07/15 06:59:27;;;;;;;6.07;2.45;;;;;;;23.95;60.21;94832.22;5053972;28;20197;-62
2022/07/15 07:01:53;;;;;;;5.90;2.33;;;;;;;24.02;60.34;94826.97;5053980;28;20726;-61
2022/07/15 07:04:19;;;;;;;6.55;3.13;;;;;;;24.13;59.22;94860.13;5054017;28;20280;-61
2022/07/15 07:06:45;;;;;;;7.28;2.85;;;;;;;24.19;60.14;94830.72;5054160;28;20220;-62
2022/07/15 07:09:11;;;;;;;11.63;3.38;;;;;;;24.18;58.31;94886.28;5053879;28;20201;-61
2022/07/15 07:11:39;;;;;;;7.10;2.95;;;;;;;24.13;59.18;94857.53;5035904;28;20212;-62
2022/07/15 07:14:05;;;;;;;10.77;3.22;;;;;;;24.06;59.45;94835.97;5053994;28;20281;-61
2022/07/15 07:16:31;;;;;;;9.00;3.38;;;;;;;24.07;58.23;94872.16;5061008;22;20247;-61
2022/07/15 07:18:57;;;;;;;4.65;3.03;;;;;;;24.26;59.41;94839.25;5053947;28;20182;-62
2022/07/15 07:21:23;;;;;;;11.55;4.07;;;;;;;24.35;59.50;94819.03;5053739;28;20255;-61
2022/07/15 07:23:48;;;;;;;13.10;4.05;;;;;;;24.28;57.31;94883.25;5053665;28;20548;-61
2022/07/15 07:26:15;;;;;;;7.38;3.88;;;;;;;24.26;57.53;94864.47;5053591;28;20213;-60
2022/07/15 07:28:41;;;;;;;12.65;4.28;;;;;;;23.96;56.88;94872.75;5035697;28;20186;-61
2022/07/15 07:31:12;;;;;;;12.23;4.53;;;;;;;23.63;56.21;94881.69;5053755;28;20729;-60
2022/07/15 07:33:38;;;;;;;8.38;3.67;;;;;;;23.43;60.17;94764.13;5035426;28;20220;-61
2022/07/15 07:36:05;;;;;;;14.50;4.95;;;;;;;23.33;56.42;94868.38;5054024;28;20209;-60
2022/07/15 07:38:35;;;;;;;10.13;4.45;;;;;;;23.26;61.13;94738.63;5053619;28;20200;-61
2022/07/15 07:41:01;;;;;;;11.23;4.53;;;;;;;23.49;60.97;94748.53;5053419;28;20213;-61
2022/07/15 07:43:27;;;;;;;12.45;4.38;;;;;;;23.71;61.59;94749.03;5053389;28;20200;-61
2022/07/15 07:45:54;;;;;;;13.98;6.47;;;;;;;23.90;60.21;94774.09;5052567;28;20213;-62
2022/07/15 07:48:20;;;;;;;7.50;4.10;;;;;;;24.07;60.34;94772.63;5053477;28;20185;-62
2022/07/15 07:50:46;;;;;;;12.98;5.13;;;;;;;24.22;59.90;94787.94;5053529;28;20670;-61
2022/07/15 07:53:12;;;;;;;9.73;5.10;;;;;;;24.39;57.89;94852.19;5053288;28;20291;-61
2022/07/15 07:55:38;;;;;;;11.82;5.57;;;;;;;24.33;53.79;94941.41;5053417;28;20655;-60
2022/07/15 07:58:04;;;;;;;10.43;5.07;;;;;;;24.22;54.70;94894.47;5035299;28;20186;-61
2022/07/15 08:00:31;;;;;;;9.68;5.18;;;;;;;24.39;55.82;94877.38;5052880;28;20711;-61
2022/07/15 08:02:59;;;;;;;15.90;6.18;;;;;;;24.47;54.66;94896.13;5035126;28;20284;-60
2022/07/15 08:05:26;;;;;;;12.77;5.60;;;;;;;24.54;53.91;94915.09;5052627;28;20313;-60
2022/07/15 08:08:19;;;;;;;11.35;5.13;;;;;;;24.55;53.86;94910.69;5053053;28;20294;-61
2022/07/15 08:10:48;;;;;;;11.40;5.00;;;;;;;24.68;53.46;94905.41;5052725;28;20217;-63
2022/07/15 08:13:15;;;;;;;15.07;5.43;;;;;;;24.65;53.78;94833.81;5034753;28;20210;-60
2022/07/15 08:15:41;;;;;;;11.00;5.05;;;;;;;24.79;54.09;94798.91;5034668;28;20225;-61
2022/07/15 08:18:07;;;;;;;15.40;5.38;;;;;;;24.77;54.48;94784.53;5052731;28;20186;-60
2022/07/15 08:20:33;;;;;;;10.93;5.95;;;;;;;24.72;53.90;94789.56;5052604;28;20209;-61
2022/07/15 08:22:59;;;;;;;13.13;6.03;;;;;;;24.74;56.52;94725.16;5052574;28;20236;-61
2022/07/15 08:25:26;;;;;;;9.93;5.30;;;;;;;24.82;56.88;94714.47;5052663;28;20241;-60
2022/07/15 08:27:52;;;;;;;14.90;5.55;;;;;;;24.95;56.33;94737.72;5034455;28;20200;-61
2022/07/15 08:30:18;;;;;;;15.95;6.22;;;;;;;25.16;54.86;94763.34;5052383;28;20314;-60
2022/07/15 08:32:43;;;;;;;14.63;5.72;;;;;;;25.15;53.71;94795.56;5052365;28;20209;-61
2022/07/15 08:35:09;;;;;;;9.43;5.53;;;;;;;24.90;52.78;94790.44;5052363;28;20186;-62
2022/07/15 08:37:41;;;;;;;14.57;5.53;;;;;;;25.04;54.25;94752.06;5052526;28;20251;-60
2022/07/15 08:40:10;;;;;;;8.82;5.03;;;;;;;24.92;53.68;94761.59;5052258;28;20221;-61
2022/07/15 08:42:43;;;;;;;12.13;4.40;;;;;;;24.95;56.06;94696.91;5052376;28;20685;-61
2022/07/15 08:45:10;;;;;;;9.57;5.10;;;;;;;25.12;53.22;94777.00;5034428;28;20267;-61
2022/07/15 08:47:39;;;;;;;11.07;4.07;;;;;;;25.21;48.95;94825.94;5052148;28;20325;-60
2022/07/15 08:50:05;;;;;;;9.65;3.90;;;;;;;25.19;49.24;94788.91;5052028;28;20641;-60
2022/07/15 08:52:33;;;;;;;7.38;3.20;;;;;;;25.01;47.55;94806.34;5051946;28;20288;-61
2022/07/15 08:55:00;;;;;;;6.00;3.40;;;;;;;24.96;51.10;94724.53;5051909;28;20186;-61
2022/07/15 08:57:26;;;;;;;8.25;3.88;;;;;;;25.02;51.58;94716.84;5050909;28;20620;-61
2022/07/15 08:59:52;;;;;;;6.78;3.13;;;;;;;25.18;49.19;94770.94;5034112;28;20197;-61
2022/07/15 09:02:19;;;;;;;7.53;3.60;;;;;;;25.29;51.55;94721.53;5051719;28;20213;-61
2022/07/15 09:05:23;;;;;;;9.05;3.70;;;;;;;25.55;52.69;94699.63;5051606;28;20577;-61
2022/07/15 09:07:59;;;;;;;13.52;4.10;;;;;;;25.80;52.31;94708.91;5051726;28;20630;-61
2022/07/15 09:10:40;;;;;;;7.63;3.80;;;;;;;25.96;50.04;94743.94;5051860;28;20205;-61
2022/07/15 09:13:06;;;;;;;6.60;2.70;;;;;;;26.03;48.74;94765.50;5051532;28;20213;-62
2022/07/15 09:15:34;;;;;;;6.32;2.72;;;;;;;26.22;48.10;94779.31;5051702;28;20232;-60
2022/07/15 09:18:26;;;;;;;9.60;3.05;;;;;;;26.28;47.66;94763.56;5148571;27;20296;-61
2022/07/15 09:20:53;;;;;;;6.07;3.08;;;;;;;26.36;46.48;94786.69;5119825;28;20215;-62
2022/07/15 09:23:29;;;;;;;7.28;2.97;;;;;;;26.47;48.38;94749.44;5107366;28;20218;-61
2022/07/15 09:26:14;;;;;;;8.18;3.63;;;;;;;26.56;48.09;94742.84;5107102;28;20312;-61
2022/07/15 09:28:41;;;;;;;11.05;3.28;;;;;;;26.60;47.13;94762.25;5107079;28;20200;-60
2022/07/15 09:33:59;;;;;;;5.75;2.42;;;;;;;26.66;44.10;94807.53;5107118;28;20206;-60
2022/07/15 09:36:27;;;;;;;4.63;2.13;;;;;;;26.75;43.56;94810.63;5106847;28;20207;-61
2022/07/15 09:38:56;;;;;;;5.97;2.28;;;;;;;26.59;43.40;94809.44;5106983;28;20184;-60
2022/07/15 09:41:33;;;;;;;3.35;2.45;;;;;;;26.83;43.75;94789.41;5106966;28;20630;-60
2022/07/15 09:44:03;;;;;;;3.60;2.00;;;;;;;27.18;45.91;94745.81;5107069;28;20280;-60
2022/07/15 09:46:41;;;;;;;6.13;1.95;;;;;;;27.33;43.44;94785.31;5088350;28;20219;-62
2022/07/15 09:49:07;;;;;;;13.45;2.70;;;;;;;27.38;44.66;94759.31;5106954;28;20188;-60
2022/07/15 09:51:43;;;;;;;3.90;2.03;;;;;;;27.68;45.75;94735.59;5107046;28;20210;-61
2022/07/15 09:54:12;;;;;;;7.22;2.33;;;;;;;27.79;44.92;94759.09;5106918;28;20276;-60
2022/07/15 09:56:38;;;;;;;2.72;2.00;;;;;;;27.99;42.01;94813.59;5106609;28;20200;-60
2022/07/15 09:59:03;;;;;;;6.03;1.73;;;;;;;28.03;41.37;94806.88;5106562;28;20244;-61
2022/07/15 10:01:29;;;;;;;2.30;1.63;;;;;;;27.90;40.86;94813.16;5106615;28;20234;-61
2022/07/15 10:03:56;;;;;;;1.90;1.55;;;;;;;27.95;40.55;94813.28;5106461;28;20192;-61
2022/07/15 10:06:26;;;;;;;5.20;1.67;;;;;;;28.05;42.83;94769.03;5106418;28;20215;-61
2022/07/15 10:08:53;;;;;;;2.67;2.13;;;;;;;28.37;41.76;94781.59;5106461;28;20188;-61
2022/07/15 10:11:20;;;;;;;5.88;1.77;;;;;;;27.97;40.16;94829.53;5106534;28;20211;-61
2022/07/15 10:14:07;;;;;;;3.55;1.70;;;;;;;28.04;39.82;94811.88;5106386;28;20187;-61
2022/07/15 10:17:03;;;;;;;5.38;1.90;;;;;;;28.19;39.56;94812.16;5106612;28;20682;-61
2022/07/15 10:19:57;;;;;;;5.50;1.75;;;;;;;28.25;38.35;94831.34;5086597;28;20196;-60
2022/07/15 10:23:04;;;;;;;6.28;1.50;;;;;;;27.94;38.34;94816.06;5105625;28;20192;-62
2022/07/15 10:25:55;;;;;;;2.85;1.88;;;;;;;28.50;40.36;94778.69;5105893;28;20701;-60
2022/07/15 10:28:42;;;;;;;2.88;1.65;;;;;;;29.01;39.35;94791.53;5098988;28;20245;-62
2022/07/15 10:31:27;;;;;;;4.30;1.70;;;;;;;29.27;39.44;94779.63;5092284;28;20702;-62
2022/07/15 10:34:17;;;;;;;6.13;1.90;;;;;;;29.40;39.10;94789.75;5092387;28;20191;-60
2022/07/15 10:36:45;;;;;;;2.13;1.65;;;;;;;29.31;37.87;94802.47;5079429;28;20228;-61
2022/07/15 10:39:11;;;;;;;2.08;1.90;;;;;;;29.03;35.60;94852.31;5092118;28;20199;-60
2022/07/15 10:41:57;;;;;;;3.40;1.75;;;;;;;29.40;34.66;94842.94;5092312;28;20629;-61
2022/07/15 10:44:25;;;;;;;4.72;1.80;;;;;;;29.61;37.07;94771.41;5092133;28;20188;-61
2022/07/15 10:47:12;;;;;;;5.25;1.70;;;;;;;29.81;36.39;94786.63;5092212;28;20247;-61
2022/07/15 10:49:38;;;;;;;4.15;1.50;;;;;;;30.01;39.12;94738.84;5092329;28;20271;-60
2022/07/15 10:52:21;;;;;;;2.53;1.30;;;;;;;30.15;36.14;94787.25;5074259;28;20666;-61
2022/07/15 10:55:00;;;;;;;5.07;1.98;;;;;;;30.17;35.02;94806.16;5092308;28;20195;-62
2022/07/15 10:57:41;;;;;;;2.97;1.80;;;;;;;29.95;34.69;94803.56;5092027;28;20663;-60
2022/07/15 11:00:15;;;;;;;8.77;1.92;;;;;;;30.16;35.60;94778.34;5092048;28;20187;-60
2022/07/15 11:03:06;;;;;;;4.22;2.15;;;;;;;30.37;34.60;94806.38;5092395;28;20183;-60
2022/07/15 11:05:33;;;;;;;6.68;2.28;;;;;;;30.49;34.41;94799.13;5091955;28;20227;-61
2022/07/15 11:07:59;;;;;;;4.70;1.50;;;;;;;30.14;33.12;94822.41;5091908;28;20294;-61
2022/07/15 11:10:25;;;;;;;4.20;1.35;;;;;;;30.30;35.31;94750.69;5091899;28;20694;-61
2022/07/15 11:12:51;;;;;;;6.18;1.50;;;;;;;30.35;33.88;94790.88;5091860;28;20192;-61
2022/07/15 11:15:19;;;;;;;3.47;1.40;;;;;;;30.70;33.30;94808.00;5091590;28;20220;-62
2022/07/15 11:17:47;;;;;;;2.15;1.20;;;;;;;31.02;30.51;94856.06;5092034;28;20584;-61
2022/07/15 11:20:17;;;;;;;2.70;1.10;;;;;;;30.65;29.13;94856.00;5091916;28;20678;-61
2022/07/15 11:22:51;;;;;;;1.85;1.30;;;;;;;31.02;30.91;94796.44;5092034;28;20231;-61
2022/07/15 11:25:21;;;;;;;3.33;1.73;;;;;;;31.28;30.02;94819.22;5091804;28;20210;-61
2022/07/15 11:28:11;;;;;;;1.83;1.48;;;;;;;31.17;30.10;94806.28;5091826;28;20216;-61
2022/07/15 11:30:41;;;;;;;4.68;1.70;;;;;;;31.11;28.37;94849.31;5073287;28;20303;-59
2022/07/15 11:33:10;;;;;;;4.72;2.00;;;;;;;30.94;28.81;94812.69;5091546;28;20312;-60
2022/07/15 11:36:02;;;;;;;4.78;2.05;;;;;;;31.56;29.96;94783.09;5091110;28;20230;-61
2022/07/15 11:38:31;;;;;;;5.18;2.40;;;;;;;31.98;29.96;94781.16;5086714;28;20203;-60
2022/07/15 11:46:30;;;;;;;6.72;2.30;;;;;;;31.38;29.91;94766.72;5091648;28;20226;-61
2022/07/15 11:48:57;;;;;;;4.38;1.88;;;;;;;31.42;30.67;94744.16;5091307;28;20267;-61
2022/07/15 11:51:29;;;;;;;3.00;2.03;;;;;;;31.45;31.79;94706.81;5091363;28;20204;-61